Time;durP1;ratioP1;P1;durP2;ratioP2;P2;SDS_P1;SDS_P2;PMS_P1;PMS_P2;Temp;Humidity;BMP_temperature;BMP_pressure;BME280_temperature;BME280_humidity;BME280_pressure;Samples;Min_cycle;Max_cycle;Signal;HPM_P1;HPM_P2
2021/05/25 00:00:57;;;;;;;;;;;20.90;47.50;;;;;;491432;240;1150;-73
2021/05/25 00:02:58;;;;;;;;;;;20.80;47.50;;;;;;491521;240;1107;-73
2021/05/25 00:04:59;;;;;;;;;;;20.90;47.60;;;;;;491607;240;970;-73
2021/05/25 00:07:00;;;;;;;;;;;20.80;47.50;;;;;;491593;240;1143;-73
2021/05/25 00:09:02;;;;;;;;;;;20.90;47.50;;;;;;491596;240;2188;-73
2021/05/25 00:11:03;;;;;;;;;;;21.00;47.30;;;;;;491582;240;1072;-73
2021/05/25 00:13:05;;;;;;;;;;;20.90;47.20;;;;;;491592;240;1064;-73
2021/05/25 00:15:05;;;;;;;;;;;21.00;47.10;;;;;;491592;240;1387;-73
2021/05/25 00:17:07;;;;;;;;;;;21.10;46.90;;;;;;491554;240;1137;-73
2021/05/25 00:19:08;;;;;;;;;;;21.10;46.80;;;;;;491559;240;1044;-73
2021/05/25 00:21:10;;;;;;;;;;;21.10;46.70;;;;;;491398;240;1212;-73
2021/05/25 00:23:11;;;;;;;;;;;21.20;46.70;;;;;;491583;240;1031;-73
2021/05/25 00:25:12;;;;;;;;;;;21.10;46.70;;;;;;491507;240;960;-73
2021/05/25 00:27:14;;;;;;;;;;;21.10;46.70;;;;;;491417;240;1152;-73
2021/05/25 00:29:15;;;;;;;;;;;21.10;46.80;;;;;;491427;240;2191;-73
2021/05/25 00:31:16;;;;;;;;;;;21.10;46.80;;;;;;491515;240;1281;-73
2021/05/25 00:33:18;;;;;;;;;;;21.10;46.80;;;;;;491561;240;971;-73
2021/05/25 00:35:19;;;;;;;;;;;21.00;46.70;;;;;;491623;240;960;-73
2021/05/25 00:37:20;;;;;;;;;;;21.10;46.50;;;;;;491627;240;971;-73
2021/05/25 00:39:22;;;;;;;;;;;21.10;46.50;;;;;;491632;240;1052;-73
2021/05/25 00:41:23;;;;;;;;;;;21.10;46.70;;;;;;491603;240;1016;-73
2021/05/25 00:43:24;;;;;;;;;;;21.10;46.60;;;;;;491642;240;1008;-73
2021/05/25 00:45:25;;;;;;;;;;;21.10;46.50;;;;;;491605;240;1049;-73
2021/05/25 00:47:27;;;;;;;;;;;21.10;46.50;;;;;;491589;240;1196;-73
2021/05/25 00:49:28;;;;;;;;;;;21.10;46.40;;;;;;491519;240;2149;-73
2021/05/25 00:51:30;;;;;;;;;;;21.10;46.30;;;;;;491508;240;1103;-73
2021/05/25 00:53:31;;;;;;;;;;;21.20;46.20;;;;;;491493;240;1184;-73
2021/05/25 00:55:32;;;;;;;;;;;21.20;46.10;;;;;;491541;240;971;-73
2021/05/25 00:57:34;;;;;;;;;;;21.20;46.10;;;;;;491503;240;1110;-73
2021/05/25 00:59:35;;;;;;;;;;;21.10;46.20;;;;;;491630;240;1052;-73
2021/05/25 01:01:36;;;;;;;;;;;21.10;46.20;;;;;;491515;240;1138;-73
2021/05/25 01:03:37;;;;;;;;;;;21.20;46.10;;;;;;491669;240;1055;-73
2021/05/25 01:05:39;;;;;;;;;;;21.10;46.10;;;;;;491612;240;949;-73
2021/05/25 01:07:40;;;;;;;;;;;21.10;46.20;;;;;;491627;240;1132;-73
2021/05/25 01:09:41;;;;;;;;;;;21.10;46.10;;;;;;491588;240;2188;-73
2021/05/25 01:11:43;;;;;;;;;;;21.10;46.10;;;;;;491606;240;1117;-73
2021/05/25 01:13:46;;;;;;;;;;;21.10;46.10;;;;;;491565;240;1542;-73
2021/05/25 01:15:46;;;;;;;;;;;21.10;46.20;;;;;;491437;240;1334;-73
2021/05/25 01:17:47;;;;;;;;;;;21.00;46.10;;;;;;491581;240;1195;-73
2021/05/25 01:19:48;;;;;;;;;;;21.10;46.10;;;;;;491483;240;1075;-73
2021/05/25 01:21:49;;;;;;;;;;;21.10;46.00;;;;;;491488;240;1028;-73
2021/05/25 01:23:51;;;;;;;;;;;21.20;45.80;;;;;;491536;240;1034;-73
2021/05/25 01:25:52;;;;;;;;;;;21.20;45.90;;;;;;491570;240;1032;-73
2021/05/25 01:27:53;;;;;;;;;;;21.20;45.80;;;;;;491611;240;1322;-73
2021/05/25 01:29:54;;;;;;;;;;;21.20;45.90;;;;;;491598;240;2188;-73
2021/05/25 01:31:56;;;;;;;;;;;21.20;45.70;;;;;;491612;240;993;-73
2021/05/25 01:33:57;;;;;;;;;;;21.20;45.60;;;;;;491610;240;1169;-73
2021/05/25 01:35:58;;;;;;;;;;;21.20;45.60;;;;;;491602;240;1074;-73
2021/05/25 01:38:00;;;;;;;;;;;21.20;45.70;;;;;;491604;240;1104;-73
2021/05/25 01:40:01;;;;;;;;;;;21.20;45.60;;;;;;491550;240;1041;-73
2021/05/25 01:42:02;;;;;;;;;;;21.20;45.50;;;;;;491515;240;1267;-73
2021/05/25 01:44:03;;;;;;;;;;;21.20;45.50;;;;;;491571;240;960;-73
2021/05/25 01:46:05;;;;;;;;;;;21.20;45.40;;;;;;491466;240;1246;-73
2021/05/25 01:48:06;;;;;;;;;;;21.10;45.50;;;;;;491575;240;1105;-73
2021/05/25 01:50:14;;;;;;;;;;;21.20;45.60;;;;;;491541;240;2122;-73
2021/05/25 01:52:15;;;;;;;;;;;21.20;45.50;;;;;;491530;240;1285;-73
2021/05/25 01:54:16;;;;;;;;;;;21.20;45.40;;;;;;491647;240;1129;-73
2021/05/25 01:56:17;;;;;;;;;;;21.20;45.20;;;;;;491475;240;1243;-73
2021/05/25 01:58:18;;;;;;;;;;;21.30;45.20;;;;;;491583;240;1058;-73
2021/05/25 02:00:20;;;;;;;;;;;21.30;45.20;;;;;;491608;240;1067;-73
2021/05/25 02:02:21;;;;;;;;;;;21.30;45.20;;;;;;491408;240;1085;-73
2021/05/25 02:04:22;;;;;;;;;;;21.30;45.20;;;;;;491560;240;967;-73
2021/05/25 02:06:24;;;;;;;;;;;21.20;45.10;;;;;;491469;240;1174;-73
2021/05/25 02:08:25;;;;;;;;;;;21.30;45.10;;;;;;491493;240;2195;-73
2021/05/25 02:10:26;;;;;;;;;;;21.10;45.10;;;;;;491513;240;1211;-73
2021/05/25 02:12:27;;;;;;;;;;;21.30;45.00;;;;;;491425;240;1175;-73
2021/05/25 02:14:29;;;;;;;;;;;21.30;44.90;;;;;;491497;240;1279;-72
2021/05/25 02:16:30;;;;;;;;;;;21.40;44.80;;;;;;491385;240;1111;-73
2021/05/25 02:18:31;;;;;;;;;;;21.30;44.80;;;;;;491703;240;1200;-73
2021/05/25 02:20:33;;;;;;;;;;;21.30;44.80;;;;;;491536;240;995;-73
2021/05/25 02:22:34;;;;;;;;;;;21.30;44.60;;;;;;491625;240;1047;-73
2021/05/25 02:24:35;;;;;;;;;;;21.30;44.60;;;;;;491610;240;1029;-73
2021/05/25 02:26:36;;;;;;;;;;;21.30;44.60;;;;;;491596;240;1049;-73
2021/05/25 02:28:38;;;;;;;;;;;21.30;44.60;;;;;;491577;240;2180;-73
2021/05/25 02:30:39;;;;;;;;;;;21.30;44.50;;;;;;491585;240;1115;-73
2021/05/25 02:32:40;;;;;;;;;;;21.20;44.60;;;;;;491513;240;1302;-73
2021/05/25 02:34:42;;;;;;;;;;;21.30;44.40;;;;;;491508;240;1042;-73
2021/05/25 02:36:43;;;;;;;;;;;21.30;44.20;;;;;;491469;240;1165;-73
2021/05/25 02:38:45;;;;;;;;;;;21.30;44.10;;;;;;491627;240;1085;-73
2021/05/25 02:40:46;;;;;;;;;;;21.30;44.20;;;;;;491498;240;1079;-73
2021/05/25 02:42:47;;;;;;;;;;;21.30;44.10;;;;;;491559;240;1052;-73
2021/05/25 02:44:48;;;;;;;;;;;21.20;44.00;;;;;;491550;240;1107;-73
2021/05/25 02:46:50;;;;;;;;;;;21.30;44.10;;;;;;491631;240;1021;-73
2021/05/25 02:48:51;;;;;;;;;;;21.20;44.00;;;;;;491643;240;2191;-73
2021/05/25 02:50:52;;;;;;;;;;;21.30;43.90;;;;;;491566;240;1033;-73
2021/05/25 02:52:54;;;;;;;;;;;21.30;43.80;;;;;;491640;240;1113;-73
2021/05/25 02:54:55;;;;;;;;;;;21.30;43.70;;;;;;491613;240;1064;-73
2021/05/25 02:56:56;;;;;;;;;;;21.20;43.80;;;;;;491571;240;1204;-73
2021/05/25 02:58:57;;;;;;;;;;;21.20;43.80;;;;;;491576;240;1042;-73
2021/05/25 03:00:59;;;;;;;;;;;21.20;43.60;;;;;;491462;240;1236;-73
2021/05/25 03:03:00;;;;;;;;;;;21.20;43.70;;;;;;491424;240;1076;-73
2021/05/25 03:05:01;;;;;;;;;;;21.20;43.60;;;;;;491546;240;1172;-73
2021/05/25 03:07:02;;;;;;;;;;;21.20;43.50;;;;;;491432;240;1228;-73
2021/05/25 03:09:04;;;;;;;;;;;21.30;43.30;;;;;;491491;240;2184;-73
2021/05/25 03:11:05;;;;;;;;;;;21.30;43.20;;;;;;491485;240;1166;-73
2021/05/25 03:13:06;;;;;;;;;;;21.30;43.20;;;;;;491638;240;1063;-73
2021/05/25 03:15:08;;;;;;;;;;;21.30;43.20;;;;;;491649;240;1112;-73
2021/05/25 03:17:09;;;;;;;;;;;21.20;43.20;;;;;;491559;240;1167;-73
2021/05/25 03:19:11;;;;;;;;;;;21.20;43.10;;;;;;491675;240;1129;-73
2021/05/25 03:21:12;;;;;;;;;;;21.20;43.10;;;;;;491493;240;1306;-73
2021/05/25 03:23:13;;;;;;;;;;;21.20;42.90;;;;;;491585;240;1024;-73
2021/05/25 03:25:15;;;;;;;;;;;21.20;42.80;;;;;;491613;240;983;-73
2021/05/25 03:27:15;;;;;;;;;;;21.30;42.80;;;;;;491463;240;1017;-73
2021/05/25 03:29:17;;;;;;;;;;;21.20;42.80;;;;;;491598;240;2172;-73
2021/05/25 03:31:18;;;;;;;;;;;21.30;42.70;;;;;;491585;240;1012;-73
2021/05/25 03:33:19;;;;;;;;;;;21.40;42.60;;;;;;491491;240;1082;-73
2021/05/25 03:35:21;;;;;;;;;;;21.30;42.50;;;;;;491552;240;1180;-73
2021/05/25 03:37:22;;;;;;;;;;;21.30;42.60;;;;;;491551;240;1082;-74
2021/05/25 03:39:23;;;;;;;;;;;21.30;42.60;;;;;;491719;240;1061;-73
2021/05/25 03:41:24;;;;;;;;;;;21.20;42.70;;;;;;491592;240;1027;-73
2021/05/25 03:43:26;;;;;;;;;;;21.20;42.60;;;;;;491585;240;1051;-73
2021/05/25 03:45:27;;;;;;;;;;;21.20;42.60;;;;;;491559;240;1097;-73
2021/05/25 03:47:28;;;;;;;;;;;21.20;42.50;;;;;;491496;240;1225;-73
2021/05/25 03:49:30;;;;;;;;;;;21.20;42.60;;;;;;491711;240;2148;-73
2021/05/25 03:51:31;;;;;;;;;;;21.20;42.40;;;;;;491522;240;1224;-73
2021/05/25 03:53:32;;;;;;;;;;;21.30;42.40;;;;;;491499;240;1049;-73
2021/05/25 03:55:45;;;;;;;;;;;21.30;42.40;;;;;;491620;240;1091;-73
2021/05/25 04:00:12;;;;;;;;;;;21.30;42.40;;;;;;472334;251;1187;-73
2021/05/25 04:02:13;;;;;;;;;;;21.30;42.40;;;;;;490138;243;1289;-73
2021/05/25 04:04:14;;;;;;;;;;;21.20;42.40;;;;;;491534;240;1297;-73
2021/05/25 04:06:16;;;;;;;;;;;21.20;42.40;;;;;;491461;240;1174;-73
2021/05/25 04:08:17;;;;;;;;;;;21.20;42.30;;;;;;490961;240;1199;-73
2021/05/25 04:10:18;;;;;;;;;;;21.20;42.40;;;;;;491552;240;2141;-73
2021/05/25 04:12:19;;;;;;;;;;;21.20;42.40;;;;;;491466;240;1075;-73
2021/05/25 04:14:21;;;;;;;;;;;21.20;42.30;;;;;;491426;240;1219;-73
2021/05/25 04:16:22;;;;;;;;;;;21.20;42.10;;;;;;491354;240;1100;-73
2021/05/25 04:18:23;;;;;;;;;;;21.20;42.10;;;;;;491358;240;1065;-73
2021/05/25 04:20:25;;;;;;;;;;;21.20;42.10;;;;;;491344;240;1188;-73
2021/05/25 04:22:26;;;;;;;;;;;21.20;42.10;;;;;;491284;240;1131;-73
2021/05/25 04:24:27;;;;;;;;;;;21.20;42.10;;;;;;491294;240;1093;-73
2021/05/25 04:26:28;;;;;;;;;;;21.20;42.20;;;;;;491355;240;1111;-72
2021/05/25 04:28:30;;;;;;;;;;;21.20;42.00;;;;;;491373;240;1320;-72
2021/05/25 04:30:31;;;;;;;;;;;21.20;42.00;;;;;;491288;240;2153;-73
2021/05/25 04:32:32;;;;;;;;;;;21.20;42.00;;;;;;491299;240;1094;-73
2021/05/25 04:34:33;;;;;;;;;;;21.30;41.80;;;;;;491405;240;1154;-73
2021/05/25 04:36:35;;;;;;;;;;;21.20;41.80;;;;;;491387;240;1041;-73
2021/05/25 04:38:36;;;;;;;;;;;21.30;41.70;;;;;;491349;240;973;-73
2021/05/25 04:40:40;;;;;;;;;;;21.20;41.60;;;;;;491344;240;1051;-73
2021/05/25 04:42:39;;;;;;;;;;;21.20;41.60;;;;;;491394;240;1484;-73
2021/05/25 04:44:40;;;;;;;;;;;21.20;41.60;;;;;;491305;240;1223;-73
2021/05/25 04:46:41;;;;;;;;;;;21.30;41.50;;;;;;491271;240;1191;-73
2021/05/25 04:48:43;;;;;;;;;;;21.30;41.40;;;;;;491318;240;1018;-73
2021/05/25 04:50:44;;;;;;;;;;;21.30;41.40;;;;;;491250;242;2171;-73
2021/05/25 04:52:45;;;;;;;;;;;21.30;41.20;;;;;;491165;240;1094;-73
2021/05/25 04:54:47;;;;;;;;;;;21.30;41.30;;;;;;491242;240;1071;-73
2021/05/25 04:56:48;;;;;;;;;;;21.30;41.20;;;;;;491098;240;1116;-73
2021/05/25 04:58:49;;;;;;;;;;;21.30;41.20;;;;;;491269;240;1206;-73
2021/05/25 05:00:50;;;;;;;;;;;21.40;41.10;;;;;;491329;240;1215;-73
2021/05/25 05:02:52;;;;;;;;;;;21.30;41.00;;;;;;491272;240;1093;-73
2021/05/25 05:04:53;;;;;;;;;;;21.30;40.90;;;;;;491358;240;1177;-73
2021/05/25 05:06:54;;;;;;;;;;;21.30;41.00;;;;;;491311;240;1195;-73
2021/05/25 05:08:56;;;;;;;;;;;21.20;40.90;;;;;;491260;240;1041;-73
2021/05/25 05:10:57;;;;;;;;;;;21.30;41.00;;;;;;491190;240;2187;-73
2021/05/25 05:12:58;;;;;;;;;;;21.30;41.00;;;;;;491189;240;1118;-73
2021/05/25 05:14:59;;;;;;;;;;;21.30;40.90;;;;;;491173;240;1044;-73
2021/05/25 05:17:01;;;;;;;;;;;21.30;40.80;;;;;;491140;240;1121;-73
2021/05/25 05:19:02;;;;;;;;;;;21.30;40.70;;;;;;491160;240;1129;-73
2021/05/25 05:21:03;;;;;;;;;;;21.30;40.60;;;;;;491089;240;1172;-73
2021/05/25 05:23:04;;;;;;;;;;;21.30;40.60;;;;;;491040;240;1222;-72
2021/05/25 05:25:06;;;;;;;;;;;21.30;40.40;;;;;;491009;240;1095;-73
2021/05/25 05:27:07;;;;;;;;;;;21.40;40.40;;;;;;491019;240;1118;-73
2021/05/25 05:29:08;;;;;;;;;;;21.30;40.40;;;;;;491096;240;1036;-73
2021/05/25 05:31:10;;;;;;;;;;;21.40;40.40;;;;;;491031;240;2196;-73
2021/05/25 05:33:11;;;;;;;;;;;21.40;40.20;;;;;;491136;240;1031;-73
2021/05/25 05:35:12;;;;;;;;;;;21.40;40.00;;;;;;491147;240;1127;-73
2021/05/25 05:37:13;;;;;;;;;;;21.40;39.90;;;;;;491225;240;1055;-73
2021/05/25 05:39:15;;;;;;;;;;;21.40;39.90;;;;;;491069;240;1057;-73
2021/05/25 05:41:16;;;;;;;;;;;21.30;39.90;;;;;;491028;240;1062;-73
2021/05/25 05:43:18;;;;;;;;;;;21.30;40.00;;;;;;491183;240;1093;-73
2021/05/25 05:45:21;;;;;;;;;;;21.30;39.80;;;;;;491158;240;1025;-73
2021/05/25 05:47:21;;;;;;;;;;;21.30;39.70;;;;;;491123;240;1320;-73
2021/05/25 05:49:23;;;;;;;;;;;21.40;39.50;;;;;;491013;240;1055;-73
2021/05/25 05:51:23;;;;;;;;;;;21.30;39.60;;;;;;490945;240;2194;-73
2021/05/25 05:53:25;;;;;;;;;;;21.30;39.50;;;;;;491044;240;1204;-73
2021/05/25 05:55:26;;;;;;;;;;;21.30;39.40;;;;;;491040;240;1085;-73
2021/05/25 05:57:27;;;;;;;;;;;21.40;39.20;;;;;;491108;240;1062;-73
2021/05/25 05:59:28;;;;;;;;;;;21.40;39.20;;;;;;491061;240;1160;-73
2021/05/25 06:01:30;;;;;;;;;;;21.40;39.00;;;;;;491019;240;1048;-73
2021/05/25 06:03:31;;;;;;;;;;;21.40;39.00;;;;;;490902;240;1075;-73
2021/05/25 06:05:34;;;;;;;;;;;21.40;38.90;;;;;;490903;240;1185;-73
2021/05/25 06:07:33;;;;;;;;;;;21.30;38.70;;;;;;490997;240;1432;-73
2021/05/25 06:09:37;;;;;;;;;;;21.40;38.70;;;;;;490945;240;1032;-73
2021/05/25 06:11:36;;;;;;;;;;;21.40;38.70;;;;;;490980;240;2180;-73
2021/05/25 06:13:37;;;;;;;;;;;21.40;38.70;;;;;;490850;240;1210;-73
2021/05/25 06:15:39;;;;;;;;;;;21.30;38.60;;;;;;490656;240;1055;-73
2021/05/25 06:17:40;;;;;;;;;;;21.40;38.60;;;;;;490748;240;1090;-73
2021/05/25 06:19:41;;;;;;;;;;;21.30;38.50;;;;;;490813;240;1134;-73
2021/05/25 06:21:43;;;;;;;;;;;21.30;38.50;;;;;;490857;240;1186;-73
2021/05/25 06:23:44;;;;;;;;;;;21.30;38.40;;;;;;490930;240;1046;-73
2021/05/25 06:25:45;;;;;;;;;;;21.30;38.30;;;;;;490871;240;1037;-73
2021/05/25 06:27:47;;;;;;;;;;;21.40;38.20;;;;;;490985;240;1333;-73
2021/05/25 06:29:48;;;;;;;;;;;21.40;38.20;;;;;;490887;240;1218;-73
2021/05/25 06:31:49;;;;;;;;;;;21.30;38.10;;;;;;491011;240;2180;-73
2021/05/25 06:33:51;;;;;;;;;;;21.40;38.10;;;;;;490983;240;1172;-73
2021/05/25 06:35:52;;;;;;;;;;;21.30;38.00;;;;;;490942;240;1193;-73
2021/05/25 06:37:53;;;;;;;;;;;21.40;38.00;;;;;;490924;240;1111;-73
2021/05/25 06:39:54;;;;;;;;;;;21.30;37.90;;;;;;490893;240;1227;-73
2021/05/25 06:41:56;;;;;;;;;;;21.20;38.00;;;;;;491025;240;1126;-73
2021/05/25 06:43:57;;;;;;;;;;;21.30;38.00;;;;;;490853;240;1140;-72
2021/05/25 06:45:58;;;;;;;;;;;21.30;37.90;;;;;;490832;240;1233;-73
2021/05/25 06:48:00;;;;;;;;;;;21.30;37.90;;;;;;490960;240;1046;-73
2021/05/25 06:50:01;;;;;;;;;;;21.30;37.80;;;;;;490743;240;2149;-73
2021/05/25 06:52:02;;;;;;;;;;;21.30;37.70;;;;;;490579;240;1364;-73
2021/05/25 06:54:06;;;;;;;;;;;21.30;37.70;;;;;;490661;240;1034;-73
2021/05/25 06:56:05;;;;;;;;;;;21.30;37.60;;;;;;490534;240;1430;-73
2021/05/25 06:58:07;;;;;;;;;;;21.30;37.70;;;;;;490454;240;1081;-73
2021/05/25 07:00:08;;;;;;;;;;;21.30;37.60;;;;;;490381;240;1312;-73
2021/05/25 07:02:09;;;;;;;;;;;21.40;37.60;;;;;;490518;240;1138;-73
2021/05/25 07:04:10;;;;;;;;;;;21.40;37.60;;;;;;490715;240;1047;-73
2021/05/25 07:06:11;;;;;;;;;;;21.30;37.50;;;;;;490591;240;1301;-73
2021/05/25 07:08:13;;;;;;;;;;;21.20;37.60;;;;;;490695;240;1085;-73
2021/05/25 07:10:14;;;;;;;;;;;21.20;37.50;;;;;;490835;240;2140;-73
2021/05/25 07:12:16;;;;;;;;;;;21.30;37.50;;;;;;490870;240;1193;-73
2021/05/25 07:14:17;;;;;;;;;;;21.30;37.50;;;;;;490781;240;1036;-73
2021/05/25 07:16:18;;;;;;;;;;;21.30;37.50;;;;;;490766;240;1443;-73
2021/05/25 07:18:19;;;;;;;;;;;21.30;37.50;;;;;;490805;240;1037;-73
2021/05/25 07:20:21;;;;;;;;;;;21.30;37.40;;;;;;490678;240;1514;-73
2021/05/25 07:22:22;;;;;;;;;;;21.30;37.40;;;;;;490884;240;1082;-73
2021/05/25 07:24:23;;;;;;;;;;;21.30;37.20;;;;;;490996;240;1284;-73
2021/05/25 07:26:24;;;;;;;;;;;21.30;37.30;;;;;;490658;240;1238;-73
2021/05/25 07:28:26;;;;;;;;;;;21.40;37.20;;;;;;490574;240;1047;-73
2021/05/25 07:30:27;;;;;;;;;;;21.30;37.30;;;;;;490459;240;2180;-73
2021/05/25 07:32:28;;;;;;;;;;;21.30;37.40;;;;;;490466;240;1207;-73
2021/05/25 07:34:30;;;;;;;;;;;21.20;37.30;;;;;;490414;240;1071;-73
2021/05/25 07:36:31;;;;;;;;;;;21.20;37.30;;;;;;490357;240;1345;-73
2021/05/25 07:38:32;;;;;;;;;;;21.30;37.20;;;;;;490652;240;1185;-72
2021/05/25 07:40:33;;;;;;;;;;;21.20;37.20;;;;;;490645;240;1153;-73
2021/05/25 07:42:35;;;;;;;;;;;21.20;37.30;;;;;;490531;240;1071;-73
2021/05/25 07:44:36;;;;;;;;;;;21.30;37.30;;;;;;490555;240;1099;-73
2021/05/25 07:46:38;;;;;;;;;;;21.20;37.40;;;;;;490580;240;1204;-73
2021/05/25 07:48:40;;;;;;;;;;;21.00;37.30;;;;;;489793;240;1143;-73
2021/05/25 07:50:40;;;;;;;;;;;21.00;37.50;;;;;;490428;240;2151;-73
2021/05/25 07:52:41;;;;;;;;;;;21.00;37.50;;;;;;490642;240;1180;-73
2021/05/25 07:54:43;;;;;;;;;;;21.00;37.40;;;;;;490658;240;1045;-73
2021/05/25 07:56:44;;;;;;;;;;;21.00;37.40;;;;;;490695;240;1111;-73
2021/05/25 07:58:45;;;;;;;;;;;21.00;37.30;;;;;;490467;240;1037;-73
2021/05/25 08:00:46;;;;;;;;;;;21.00;37.10;;;;;;490488;240;1020;-73
2021/05/25 08:02:48;;;;;;;;;;;21.00;37.10;;;;;;490455;240;1202;-73
2021/05/25 08:04:49;;;;;;;;;;;21.00;37.00;;;;;;490604;240;1183;-73
2021/05/25 08:06:51;;;;;;;;;;;21.10;36.90;;;;;;490776;240;1418;-73
2021/05/25 08:08:52;;;;;;;;;;;21.10;36.80;;;;;;490620;240;1219;-73
2021/05/25 08:10:53;;;;;;;;;;;21.00;36.80;;;;;;490510;240;2137;-73
2021/05/25 08:12:55;;;;;;;;;;;21.10;36.70;;;;;;490642;240;1101;-73
2021/05/25 08:14:57;;;;;;;;;;;21.00;36.70;;;;;;490781;240;1087;-73
2021/05/25 08:17:05;;;;;;;;;;;21.00;36.80;;;;;;490805;240;1274;-73
2021/05/25 08:19:09;;;;;;;;;;;20.90;36.90;;;;;;490740;240;1490;-73
2021/05/25 08:21:07;;;;;;;;;;;21.00;36.80;;;;;;490573;240;1238;-73
2021/05/25 08:23:10;;;;;;;;;;;21.00;36.60;;;;;;490641;240;1183;-73
2021/05/25 08:25:10;;;;;;;;;;;21.00;36.80;;;;;;490660;240;1420;-73
2021/05/25 08:27:11;;;;;;;;;;;21.00;36.80;;;;;;490432;240;1171;-73
2021/05/25 08:29:13;;;;;;;;;;;21.00;36.80;;;;;;490460;240;1124;-73
2021/05/25 08:31:14;;;;;;;;;;;21.00;36.70;;;;;;490398;240;2189;-73
2021/05/25 08:33:15;;;;;;;;;;;21.00;36.70;;;;;;490548;240;1090;-73
2021/05/25 08:35:16;;;;;;;;;;;21.00;36.70;;;;;;490685;240;1068;-73
2021/05/25 08:37:18;;;;;;;;;;;21.00;36.70;;;;;;490574;240;1170;-73
2021/05/25 08:39:19;;;;;;;;;;;21.10;36.60;;;;;;490556;240;1042;-73
2021/05/25 08:41:21;;;;;;;;;;;21.00;36.60;;;;;;490630;240;1205;-73
2021/05/25 08:43:22;;;;;;;;;;;21.00;36.60;;;;;;490773;240;1163;-73
2021/05/25 08:45:23;;;;;;;;;;;21.10;36.50;;;;;;490629;240;1114;-73
2021/05/25 08:47:24;;;;;;;;;;;21.00;36.60;;;;;;491086;240;1255;-73
2021/05/25 08:49:26;;;;;;;;;;;21.10;36.50;;;;;;490712;240;1018;-73
2021/05/25 08:51:27;;;;;;;;;;;21.10;36.50;;;;;;490660;240;2165;-73
2021/05/25 08:53:29;;;;;;;;;;;21.00;36.50;;;;;;490696;240;1208;-73
2021/05/25 08:55:30;;;;;;;;;;;21.10;36.40;;;;;;490702;240;1045;-73
2021/05/25 08:57:31;;;;;;;;;;;21.10;36.30;;;;;;489941;240;1104;-73
2021/05/25 08:59:33;;;;;;;;;;;21.00;36.20;;;;;;490854;240;1118;-73
2021/05/25 09:01:34;;;;;;;;;;;21.10;36.30;;;;;;490721;240;1132;-73
2021/05/25 09:03:35;;;;;;;;;;;21.00;36.20;;;;;;490704;240;1088;-73
2021/05/25 09:05:37;;;;;;;;;;;20.90;36.30;;;;;;490651;240;1241;-73
2021/05/25 09:07:38;;;;;;;;;;;21.00;36.30;;;;;;490635;240;1937;-73
2021/05/25 09:09:39;;;;;;;;;;;21.00;36.30;;;;;;490670;240;1043;-73
2021/05/25 09:11:41;;;;;;;;;;;21.00;36.10;;;;;;490571;240;2179;-73
2021/05/25 09:13:42;;;;;;;;;;;21.00;36.00;;;;;;490662;240;1110;-73
2021/05/25 09:15:44;;;;;;;;;;;21.00;36.00;;;;;;490548;240;1073;-73
2021/05/25 09:17:44;;;;;;;;;;;21.00;35.90;;;;;;490540;240;1848;-73
2021/05/25 09:19:46;;;;;;;;;;;21.00;35.80;;;;;;490774;240;1067;-73
2021/05/25 09:21:47;;;;;;;;;;;21.00;35.80;;;;;;490773;240;1213;-73
2021/05/25 09:23:48;;;;;;;;;;;21.00;35.70;;;;;;490705;240;1284;-73
2021/05/25 09:25:52;;;;;;;;;;;21.00;35.60;;;;;;490558;240;1078;-73
2021/05/25 09:27:59;;;;;;;;;;;21.10;35.60;;;;;;491504;240;1330;-73
2021/05/25 09:29:59;;;;;;;;;;;21.10;35.40;;;;;;490303;240;1208;-73
2021/05/25 09:32:00;;;;;;;;;;;21.20;35.30;;;;;;490233;240;2187;-73
2021/05/25 09:34:01;;;;;;;;;;;21.20;35.40;;;;;;490467;240;1035;-73
2021/05/25 09:36:03;;;;;;;;;;;21.10;35.40;;;;;;490478;240;1270;-73
2021/05/25 09:38:04;;;;;;;;;;;21.10;35.20;;;;;;490439;242;1134;-74
2021/05/25 09:40:05;;;;;;;;;;;21.20;35.20;;;;;;490381;240;1187;-74
2021/05/25 09:42:07;;;;;;;;;;;21.20;35.20;;;;;;490365;240;1122;-75
2021/05/25 09:44:08;;;;;;;;;;;21.20;35.20;;;;;;490596;240;1085;-74
2021/05/25 09:46:10;;;;;;;;;;;21.10;35.20;;;;;;490658;240;1323;-75
2021/05/25 09:48:10;;;;;;;;;;;21.00;35.20;;;;;;491475;240;1263;-75
2021/05/25 09:50:12;;;;;;;;;;;20.90;35.30;;;;;;490534;240;1000;-74
2021/05/25 09:52:14;;;;;;;;;;;21.00;35.10;;;;;;490081;240;2192;-74
2021/05/25 09:54:14;;;;;;;;;;;21.10;35.20;;;;;;490219;240;1225;-75
2021/05/25 09:56:15;;;;;;;;;;;21.10;35.10;;;;;;490587;240;1371;-75
2021/05/25 09:58:17;;;;;;;;;;;21.20;35.00;;;;;;490562;240;1182;-75
2021/05/25 10:00:18;;;;;;;;;;;21.20;34.80;;;;;;490435;240;1046;-74
2021/05/25 10:02:20;;;;;;;;;;;21.20;34.90;;;;;;489706;240;1337;-74
2021/05/25 10:04:22;;;;;;;;;;;21.20;34.80;;;;;;490190;240;1212;-74
2021/05/25 10:06:22;;;;;;;;;;;21.20;34.90;;;;;;490220;240;1197;-75
2021/05/25 10:08:23;;;;;;;;;;;21.20;34.90;;;;;;490447;240;1322;-75
2021/05/25 10:10:24;;;;;;;;;;;21.20;34.90;;;;;;491196;240;1105;-75
2021/05/25 10:12:26;;;;;;;;;;;21.20;35.00;;;;;;490708;240;2188;-75
2021/05/25 10:14:27;;;;;;;;;;;21.20;35.00;;;;;;490840;242;1033;-74
2021/05/25 10:16:29;;;;;;;;;;;21.20;35.00;;;;;;490366;240;1153;-75
2021/05/25 10:18:37;;;;;;;;;;;21.10;35.20;;;;;;490860;240;1271;-75
2021/05/25 10:20:36;;;;;;;;;;;21.10;35.30;;;;;;490435;240;1439;-75
2021/05/25 10:22:38;;;;;;;;;;;21.10;35.20;;;;;;490445;240;1033;-75
2021/05/25 10:24:40;;;;;;;;;;;21.10;35.30;;;;;;490424;240;1371;-74
2021/05/25 10:26:40;;;;;;;;;;;21.00;35.40;;;;;;490381;240;1460;-74
2021/05/25 10:28:41;;;;;;;;;;;21.10;35.20;;;;;;490574;240;1200;-74
2021/05/25 10:30:44;;;;;;;;;;;21.10;35.20;;;;;;490687;240;1212;-75
2021/05/25 10:32:45;;;;;;;;;;;21.20;35.00;;;;;;490644;240;2148;-75
2021/05/25 10:34:48;;;;;;;;;;;21.30;34.90;;;;;;490512;240;1080;-74
2021/05/25 10:36:48;;;;;;;;;;;21.30;34.90;;;;;;490503;240;1305;-75
2021/05/25 10:38:49;;;;;;;;;;;21.30;34.80;;;;;;490668;240;1115;-75
2021/05/25 10:40:50;;;;;;;;;;;21.30;34.70;;;;;;490621;240;1177;-75
2021/05/25 10:42:52;;;;;;;;;;;21.30;34.70;;;;;;490696;240;1149;-75
2021/05/25 10:44:54;;;;;;;;;;;21.40;34.60;;;;;;490769;240;1102;-74
2021/05/25 10:46:54;;;;;;;;;;;21.40;34.50;;;;;;490736;240;2310;-75
2021/05/25 10:49:00;;;;;;;;;;;21.40;34.40;;;;;;490773;240;1161;-75
2021/05/25 10:50:58;;;;;;;;;;;21.40;34.60;;;;;;490675;240;1380;-75
2021/05/25 10:53:00;;;;;;;;;;;21.40;34.50;;;;;;490652;240;2181;-75
2021/05/25 10:55:01;;;;;;;;;;;21.50;34.40;;;;;;490583;240;1217;-74
2021/05/25 10:57:04;;;;;;;;;;;21.40;34.50;;;;;;490689;240;1062;-74
2021/05/25 10:59:04;;;;;;;;;;;21.30;34.40;;;;;;490498;240;1410;-74
2021/05/25 11:01:06;;;;;;;;;;;21.40;34.40;;;;;;490479;240;1399;-74
2021/05/25 11:03:07;;;;;;;;;;;21.30;34.50;;;;;;490557;240;1274;-75
2021/05/25 11:05:08;;;;;;;;;;;21.40;34.50;;;;;;490526;240;1056;-74
2021/05/25 11:07:09;;;;;;;;;;;21.40;34.40;;;;;;490442;240;1138;-74
2021/05/25 11:09:10;;;;;;;;;;;21.40;34.40;;;;;;490720;240;1315;-75
2021/05/25 11:11:12;;;;;;;;;;;21.40;34.30;;;;;;490483;240;1114;-75
2021/05/25 11:13:13;;;;;;;;;;;21.50;34.10;;;;;;490460;240;2188;-74
2021/05/25 11:15:15;;;;;;;;;;;21.50;34.20;;;;;;490856;240;1023;-74
2021/05/25 11:17:16;;;;;;;;;;;21.40;34.20;;;;;;490529;240;1142;-74
2021/05/25 11:19:45;;;;;;;;;;;21.40;34.40;;;;;;490506;240;1064;-75
2021/05/25 11:21:41;;;;;;;;;;;21.30;34.30;;;;;;490381;240;1316;-75
2021/05/25 11:23:40;;;;;;;;;;;21.30;34.20;;;;;;490540;240;1409;-75
2021/05/25 11:25:42;;;;;;;;;;;21.30;34.30;;;;;;490478;240;1184;-75
2021/05/25 11:27:43;;;;;;;;;;;21.30;34.20;;;;;;490617;240;1125;-75
2021/05/25 11:29:44;;;;;;;;;;;21.30;34.20;;;;;;490656;240;1083;-75
2021/05/25 11:31:46;;;;;;;;;;;21.40;33.90;;;;;;490654;240;2184;-75
2021/05/25 11:33:47;;;;;;;;;;;21.40;33.90;;;;;;490673;240;973;-75
2021/05/25 11:35:50;;;;;;;;;;;21.40;33.90;;;;;;490630;240;1099;-74
2021/05/25 11:37:51;;;;;;;;;;;21.20;34.20;;;;;;490664;242;1302;-74
2021/05/25 11:39:51;;;;;;;;;;;21.00;34.20;;;;;;491301;240;1466;-75
2021/05/25 11:41:52;;;;;;;;;;;21.00;34.50;;;;;;490680;240;1196;-74
2021/05/25 11:43:54;;;;;;;;;;;20.90;34.50;;;;;;490650;240;1023;-74
2021/05/25 11:45:55;;;;;;;;;;;20.90;34.50;;;;;;490423;240;1277;-74
2021/05/25 11:47:56;;;;;;;;;;;20.90;34.40;;;;;;490669;240;1125;-75
2021/05/25 11:49:58;;;;;;;;;;;20.90;34.30;;;;;;490986;240;1105;-74
2021/05/25 11:51:59;;;;;;;;;;;20.90;34.30;;;;;;490686;240;2200;-74
2021/05/25 11:54:00;;;;;;;;;;;20.60;34.60;;;;;;490509;240;1014;-74
2021/05/25 11:56:01;;;;;;;;;;;20.40;35.00;;;;;;490215;240;1186;-75
2021/05/25 11:58:03;;;;;;;;;;;20.30;35.30;;;;;;490445;240;1474;-74
2021/05/25 12:00:04;;;;;;;;;;;20.20;35.30;;;;;;490412;240;1337;-74